This is the latest recevied weather packets stored in our database for station/object VK4SSH. If no packets are shown the sender has not sent any weather packets the latest 10 day(s).
| Time | Temp. | Humidity | Pressure | Rain* | Wind** | Luminosity | Snow |
|---|---|---|---|---|---|---|---|
| 1777340125 | 22.78° C | 68% | - | 0 mm | - | - | - |
| 1777339525 | 22.78° C | 69% | - | 0 mm | - | - | - |
| 1777338925 | 22.78° C | 68% | - | 0 mm | - | - | - |
| 1777338325 | 22.78° C | 67% | - | 0 mm | - | - | - |
| 1777337725 | 22.78° C | 66% | - | 0 mm | - | - | - |
| 1777337125 | 22.78° C | 66% | - | 0 mm | - | - | - |
| 1777336525 | 22.22° C | 67% | - | 0 mm | - | - | - |
| 1777335925 | 22.22° C | 67% | - | 0 mm | - | - | - |
| 1777335324 | 22.22° C | 68% | - | 0 mm | - | - | - |
| 1777334725 | 21.11° C | 71% | - | 0 mm | - | - | - |
| 1777334125 | 20.56° C | 75% | - | 0 mm | - | - | - |
| 1777333525 | 20.56° C | 75% | - | 0 mm | - | - | - |
| 1777332925 | 21.11° C | 71% | - | 0 mm | - | - | - |
| 1777332325 | 20.56° C | 71% | - | 0 mm | - | - | - |
| 1777331724 | 20° C | 73% | - | 0 mm | - | - | - |
| 1777331125 | 19.44° C | 78% | - | 0 mm | - | - | - |
| 1777330525 | 19.44° C | 78% | - | 0 mm | - | - | - |
| 1777329925 | 19.44° C | 78% | - | 0 mm | - | - | - |
| 1777329325 | 18.89° C | 78% | - | 0 mm | - | - | - |
| 1777328724 | 18.33° C | 81% | - | 0 mm | - | - | - |
| 1777328125 | 17.78° C | 82% | - | 0 mm | - | - | - |
| 1777327524 | 17.78° C | 83% | - | 0 mm | - | - | - |
| 1777326925 | 17.78° C | 83% | - | 0 mm | - | - | - |
| 1777326324 | 17.78° C | 83% | - | 0 mm | - | - | - |
| 1777325724 | 17.22° C | 83% | - | 0 mm | - | - | - |
* Rain latest hour (hover to see other rain measurements)
** Current wind speed in m/s (hover to see current wind gust speed)